Time;durP1;ratioP1;P1;durP2;ratioP2;P2;SDS_P1;SDS_P2;PMS_P1;PMS_P2;Temp;Humidity;BMP_temperature;BMP_pressure;BME280_temperature;BME280_humidity;BME280_pressure;Samples;Min_cycle;Max_cycle;Signal;HPM_P1;HPM_P2
2023/09/11 04:06:42;;;;;;;;;8.33;8.33;;;;;;;;6294255;39;9999988;-56
2023/09/11 04:12:46;;;;;;;;;10.67;10.00;;;;;;;;6491442;39;9508;-54
2023/09/11 04:18:49;;;;;;;;;8.33;5.33;;;;;;;;6491715;39;8928;-55
2023/09/11 04:24:53;;;;;;;;;11.00;9.00;;;;;;;;6493509;39;8849;-57
2023/09/11 04:30:55;;;;;;;;;9.67;8.00;;;;;;;;6490744;39;8940;-58
2023/09/11 04:36:58;;;;;;;;;9.67;9.67;;;;;;;;6490866;39;8805;-57
2023/09/11 04:43:00;;;;;;;;;9.00;8.00;;;;;;;;6491458;39;8958;-56
2023/09/11 04:49:03;;;;;;;;;15.33;14.00;;;;;;;;6490184;31;8889;-57
2023/09/11 04:55:06;;;;;;;;;9.33;9.33;;;;;;;;6490377;31;8892;-56
2023/09/11 05:01:09;;;;;;;;;10.00;10.00;;;;;;;;6490981;31;8865;-55
2023/09/11 05:07:15;;;;;;;;;11.00;11.00;;;;;;;;6492975;39;9542;-57
2023/09/11 05:13:18;;;;;;;;;9.00;8.00;;;;;;;;6491268;39;9015;-56
2023/09/11 05:19:22;;;;;;;;;16.33;10.67;;;;;;;;6489919;39;9514;-57
2023/09/11 05:25:25;;;;;;;;;8.33;8.33;;;;;;;;6492019;46;8845;-55
2023/09/11 05:31:28;;;;;;;;;10.00;9.67;;;;;;;;6491089;46;8914;-59
2023/09/11 05:37:30;;;;;;;;;11.67;10.67;;;;;;;;6492297;39;9482;-57
2023/09/11 05:43:33;;;;;;;;;6.00;6.00;;;;;;;;6491489;46;8852;-58
2023/09/11 05:49:35;;;;;;;;;13.00;12.00;;;;;;;;6491753;46;8947;-57
2023/09/11 05:55:39;;;;;;;;;13.00;11.00;;;;;;;;6491815;39;8938;-57
2023/09/11 06:01:42;;;;;;;;;6.00;6.00;;;;;;;;6490602;39;8919;-58
2023/09/11 06:07:45;;;;;;;;;7.33;6.00;;;;;;;;6492870;39;9063;-58
2023/09/11 06:13:49;;;;;;;;;9.33;9.33;;;;;;;;6490975;46;8997;-58
2023/09/11 06:19:52;;;;;;;;;6.33;6.33;;;;;;;;6487656;39;8915;-58
2023/09/11 06:25:54;;;;;;;;;8.67;8.67;;;;;;;;6486972;39;8873;-56
2023/09/11 06:31:57;;;;;;;;;6.00;6.00;;;;;;;;6485787;46;8848;-56
2023/09/11 06:37:59;;;;;;;;;9.00;8.00;;;;;;;;6486022;31;8920;-58
2023/09/11 06:44:02;;;;;;;;;6.33;6.33;;;;;;;;6486978;39;9254;-56
2023/09/11 06:50:07;;;;;;;;;12.33;11.00;;;;;;;;6485874;39;8947;-59
2023/09/11 06:56:11;;;;;;;;;11.00;8.33;;;;;;;;6487584;31;8891;-56
2023/09/11 07:02:14;;;;;;;;;8.00;7.00;;;;;;;;6487735;39;8913;-57
2023/09/11 07:08:18;;;;;;;;;16.00;16.00;;;;;;;;6487323;39;9957;-58
2023/09/11 07:14:21;;;;;;;;;17.00;16.33;;;;;;;;6484473;39;8970;-57
2023/09/11 07:20:24;;;;;;;;;21.00;21.00;;;;;;;;6486153;39;8927;-56
2023/09/11 07:26:27;;;;;;;;;10.25;8.75;;;;;;;;6486970;39;8821;-56
2023/09/11 07:32:30;;;;;;;;;15.33;13.67;;;;;;;;6485906;39;8871;-59
2023/09/11 07:38:35;;;;;;;;;11.75;11.00;;;;;;;;6486337;31;8920;-59
2023/09/11 07:44:37;;;;;;;;;17.50;15.75;;;;;;;;6486268;39;8864;-61
2023/09/11 07:50:41;;;;;;;;;18.33;17.00;;;;;;;;6487034;31;9135;-60
2023/09/11 07:56:43;;;;;;;;;7.50;7.25;;;;;;;;6484995;39;8919;-62
2023/09/11 08:02:48;;;;;;;;;8.50;6.50;;;;;;;;6484211;31;9144;-61
2023/09/11 08:08:51;;;;;;;;;12.75;11.50;;;;;;;;6484098;39;8883;-60
2023/09/11 08:14:56;;;;;;;;;10.50;9.50;;;;;;;;6484166;39;8888;-63
2023/09/11 08:21:01;;;;;;;;;11.50;10.50;;;;;;;;6483458;39;8961;-64
2023/09/11 08:27:07;;;;;;;;;15.00;12.75;;;;;;;;6484389;39;9606;-62
2023/09/11 08:33:10;;;;;;;;;6.50;6.00;;;;;;;;6484366;47;8904;-62
2023/09/11 08:39:13;;;;;;;;;9.50;9.50;;;;;;;;6484850;39;8865;-62
2023/09/11 08:45:17;;;;;;;;;7.00;7.00;;;;;;;;6486820;39;9765;-62
2023/09/11 08:51:53;;;;;;;;;9.75;9.50;;;;;;;;6485950;31;8967;-62
2023/09/11 08:58:03;;;;;;;;;8.00;8.00;;;;;;;;6486507;39;9669;-63
2023/09/11 09:04:11;;;;;;;;;8.00;8.00;;;;;;;;6493641;31;8976;-63
2023/09/11 09:10:18;;;;;;;;;12.00;9.00;;;;;;;;6486733;39;8888;-62
2023/09/11 09:16:21;;;;;;;;;23.50;23.25;;;;;;;;6486478;39;8905;-59
2023/09/11 09:22:25;;;;;;;;;10.00;10.00;;;;;;;;6484457;46;8840;-62
2023/09/11 09:28:28;;;;;;;;;21.50;21.00;;;;;;;;6484664;39;9441;-62
2023/09/11 09:34:37;;;;;;;;;8.00;8.00;;;;;;;;6485691;31;8892;-61
2023/09/11 09:40:41;;;;;;;;;9.50;9.50;;;;;;;;6486254;39;8952;-61
2023/09/11 09:46:46;;;;;;;;;12.50;12.25;;;;;;;;6484113;39;8970;-62
2023/09/11 09:52:50;;;;;;;;;12.50;12.50;;;;;;;;6483417;46;8893;-61
2023/09/11 09:58:57;;;;;;;;;14.50;12.00;;;;;;;;6487761;46;8923;-63
2023/09/11 10:05:17;;;;;;;;;22.00;20.50;;;;;;;;6486462;39;9000;-65
2023/09/11 10:11:32;;;;;;;;;5.75;5.75;;;;;;;;6487007;39;9059;-61
2023/09/11 10:17:43;;;;;;;;;25.50;23.25;;;;;;;;6485306;39;8936;-66
2023/09/11 10:23:50;;;;;;;;;9.25;7.50;;;;;;;;6486802;46;8848;-60
2023/09/11 10:30:03;;;;;;;;;14.25;11.00;;;;;;;;6486019;39;8889;-61
2023/09/11 10:36:16;;;;;;;;;17.00;16.00;;;;;;;;6483568;46;9066;-60
2023/09/11 10:42:22;;;;;;;;;8.00;7.75;;;;;;;;6485354;46;8904;-61
2023/09/11 10:48:31;;;;;;;;;11.75;10.75;;;;;;;;6484888;46;8951;-60
2023/09/11 10:54:37;;;;;;;;;7.25;7.00;;;;;;;;6486118;39;8936;-62
2023/09/11 11:00:43;;;;;;;;;12.00;10.50;;;;;;;;6486852;39;8907;-62
2023/09/11 11:06:47;;;;;;;;;24.00;20.75;;;;;;;;6485708;46;8968;-61
2023/09/11 11:13:05;;;;;;;;;11.00;9.75;;;;;;;;6486262;39;8887;-61
2023/09/11 11:19:27;;;;;;;;;7.50;6.75;;;;;;;;6484971;39;9639;-61
2023/09/11 11:25:29;;;;;;;;;17.75;17.75;;;;;;;;6483999;46;8843;-60
2023/09/11 11:31:34;;;;;;;;;12.50;12.50;;;;;;;;6305614;36;10001587;-61
2023/09/11 11:37:45;;;;;;;;;14.00;12.50;;;;;;;;6485520;31;8947;-61
2023/09/11 11:43:47;;;;;;;;;9.25;9.00;;;;;;;;6486480;46;8801;-61
2023/09/11 11:49:53;;;;;;;;;11.00;9.50;;;;;;;;6486286;46;8852;-61
2023/09/11 11:55:57;;;;;;;;;12.75;11.25;;;;;;;;6484297;46;9104;-60
2023/09/11 12:02:01;;;;;;;;;10.75;10.00;;;;;;;;6485722;43;8966;-59
2023/09/11 12:08:06;;;;;;;;;11.75;11.00;;;;;;;;6487835;39;8929;-61
2023/09/11 12:14:12;;;;;;;;;15.00;12.25;;;;;;;;6489090;31;8961;-61
2023/09/11 12:20:20;;;;;;;;;10.00;10.00;;;;;;;;6488516;31;8908;-60
2023/09/11 12:26:26;;;;;;;;;8.25;7.75;;;;;;;;6488468;47;8899;-61
2023/09/11 12:32:30;;;;;;;;;11.25;10.75;;;;;;;;6487744;39;8897;-61
2023/09/11 12:38:35;;;;;;;;;19.75;17.75;;;;;;;;6486578;39;8969;-61
2023/09/11 12:44:41;;;;;;;;;7.50;7.50;;;;;;;;6487001;47;8893;-63
2023/09/11 12:50:45;;;;;;;;;15.50;13.25;;;;;;;;6488659;39;8891;-62
2023/09/11 12:56:50;;;;;;;;;23.25;22.25;;;;;;;;6488299;47;8892;-60
2023/09/11 13:02:59;;;;;;;;;8.50;8.50;;;;;;;;6488619;39;8936;-60
2023/09/11 13:09:02;;;;;;;;;8.50;8.50;;;;;;;;6487722;47;8885;-60
2023/09/11 13:15:05;;;;;;;;;13.00;8.50;;;;;;;;6487275;47;8884;-61
2023/09/11 13:21:11;;;;;;;;;19.00;18.00;;;;;;;;6486701;31;9047;-59
2023/09/11 13:27:14;;;;;;;;;12.50;11.75;;;;;;;;6487977;39;8949;-60
2023/09/11 13:33:16;;;;;;;;;8.25;8.25;;;;;;;;6489754;39;8999;-59
2023/09/11 13:39:22;;;;;;;;;7.25;7.25;;;;;;;;6484318;39;8951;-60
2023/09/11 13:45:25;;;;;;;;;11.25;11.25;;;;;;;;6487985;46;8941;-63
2023/09/11 13:51:27;;;;;;;;;10.00;8.75;;;;;;;;6487478;31;8879;-61
2023/09/11 13:57:33;;;;;;;;;11.00;10.50;;;;;;;;6488710;46;9072;-60
2023/09/11 14:03:37;;;;;;;;;14.75;14.50;;;;;;;;6489994;39;8908;-62
2023/09/11 14:09:40;;;;;;;;;10.75;10.75;;;;;;;;6489654;31;8864;-60
2023/09/11 14:15:46;;;;;;;;;5.50;5.50;;;;;;;;6490163;39;8924;-59
2023/09/11 14:21:49;;;;;;;;;11.25;11.25;;;;;;;;6489166;39;8857;-62
2023/09/11 14:27:52;;;;;;;;;14.25;11.25;;;;;;;;6489548;39;8832;-60
2023/09/11 14:33:56;;;;;;;;;11.75;11.75;;;;;;;;6490443;39;8853;-60
2023/09/11 14:39:58;;;;;;;;;11.00;9.50;;;;;;;;6489370;46;8882;-63
2023/09/11 14:46:01;;;;;;;;;10.50;9.25;;;;;;;;6489962;46;8940;-60
2023/09/11 14:52:08;;;;;;;;;11.00;10.25;;;;;;;;6490401;39;8895;-62
2023/09/11 14:58:10;;;;;;;;;9.00;9.00;;;;;;;;6489647;39;9163;-60
2023/09/11 15:04:12;;;;;;;;;15.00;14.75;;;;;;;;6489677;39;8923;-60
2023/09/11 15:10:37;;;;;;;;;10.50;9.50;;;;;;;;6490506;31;8864;-61
2023/09/11 15:16:39;;;;;;;;;11.00;9.50;;;;;;;;6489082;39;8900;-61
2023/09/11 15:22:41;;;;;;;;;12.75;11.50;;;;;;;;6489324;46;8888;-62
2023/09/11 15:28:44;;;;;;;;;10.50;9.25;;;;;;;;6488859;39;8879;-61
2023/09/11 15:34:48;;;;;;;;;9.50;9.25;;;;;;;;6490335;39;8909;-62
2023/09/11 15:40:53;;;;;;;;;10.75;10.50;;;;;;;;6489469;31;9039;-60
2023/09/11 15:46:59;;;;;;;;;17.25;16.00;;;;;;;;6490086;39;8869;-60
2023/09/11 15:53:01;;;;;;;;;39.67;35.00;;;;;;;;6489780;39;9031;-62
2023/09/11 15:59:04;;;;;;;;;20.75;19.75;;;;;;;;6489775;46;8897;-62
2023/09/11 16:05:08;;;;;;;;;17.50;14.75;;;;;;;;6488239;46;8912;-62
2023/09/11 16:11:11;;;;;;;;;14.75;14.00;;;;;;;;6488591;46;8873;-62
